Time;durP1;ratioP1;P1;durP2;ratioP2;P2;SDS_P1;SDS_P2;PMS_P1;PMS_P2;Temp;Humidity;BMP_temperature;BMP_pressure;BME280_temperature;BME280_humidity;BME280_pressure;Samples;Min_cycle;Max_cycle;Signal;HPM_P1;HPM_P2
2022/09/11 00:01:17;;;;;;;0.17;0.15;;;;;;;;;;5026495;28;20382;-71
2022/09/11 00:03:46;;;;;;;0.10;0.10;;;;;;;;;;5026884;28;20057;-70
2022/09/11 00:06:20;;;;;;;0.70;0.20;;;;;;;;;;5027785;28;20429;-71
2022/09/11 00:08:59;;;;;;;0.10;0.10;;;;;;;;;;5023385;28;20524;-70
2022/09/11 00:11:29;;;;;;;0.38;0.30;;;;;;;;;;5026765;28;20060;-70
2022/09/11 00:13:57;;;;;;;0.15;0.10;;;;;;;;;;5024292;28;20057;-70
2022/09/11 00:16:26;;;;;;;0.77;0.73;;;;;;;;;;5021420;28;20042;-70
2022/09/11 00:18:56;;;;;;;0.05;0.05;;;;;;;;;;5023080;28;20083;-70
2022/09/11 00:21:24;;;;;;;0.28;0.28;;;;;;;;;;5023550;28;20056;-70
2022/09/11 00:23:53;;;;;;;0.10;0.10;;;;;;;;;;5020995;28;21895;-69
2022/09/11 00:26:23;;;;;;;0.17;0.03;;;;;;;;;;5023524;28;20509;-69
2022/09/11 00:28:52;;;;;;;0.00;0.00;;;;;;;;;;5022119;28;20049;-70
2022/09/11 00:31:22;;;;;;;0.47;0.10;;;;;;;;;;5030021;28;20045;-69
2022/09/11 00:33:51;;;;;;;6.32;0.80;;;;;;;;;;5025803;28;20092;-69
2022/09/11 00:36:21;;;;;;;0.47;0.10;;;;;;;;;;5020882;28;20060;-69
2022/09/11 00:38:49;;;;;;;0.40;0.10;;;;;;;;;;5022630;28;20065;-69
2022/09/11 00:41:18;;;;;;;0.20;0.20;;;;;;;;;;5026627;28;20056;-69
2022/09/11 00:43:56;;;;;;;0.08;0.08;;;;;;;;;;5023056;28;20068;-68
2022/09/11 00:46:25;;;;;;;0.38;0.30;;;;;;;;;;5034842;28;20045;-68
2022/09/11 00:48:56;;;;;;;0.15;0.10;;;;;;;;;;5041342;28;20704;-68
2022/09/11 00:51:26;;;;;;;0.30;0.30;;;;;;;;;;5042687;28;20072;-68
2022/09/11 00:53:56;;;;;;;0.28;0.17;;;;;;;;;;5043026;28;20052;-68
2022/09/11 00:56:27;;;;;;;1.58;0.30;;;;;;;;;;5029712;28;20045;-67
2022/09/11 00:58:57;;;;;;;0.10;0.10;;;;;;;;;;5025383;28;20368;-68
2022/09/11 01:01:26;;;;;;;2.60;0.25;;;;;;;;;;5025959;28;20054;-68
2022/09/11 01:03:55;;;;;;;0.25;0.20;;;;;;;;;;5023477;28;20049;-68
2022/09/11 01:06:24;;;;;;;0.00;0.00;;;;;;;;;;5019548;28;20060;-68
2022/09/11 01:08:52;;;;;;;0.00;0.00;;;;;;;;;;5023509;28;20049;-68
2022/09/11 01:11:27;;;;;;;0.55;0.55;;;;;;;;;;5026490;28;20056;-67
2022/09/11 01:14:00;;;;;;;0.63;0.20;;;;;;;;;;5022786;28;21644;-67
2022/09/11 01:16:34;;;;;;;0.20;0.10;;;;;;;;;;5021018;28;20045;-67
2022/09/11 01:19:07;;;;;;;1.45;0.20;;;;;;;;;;5021390;28;20100;-68
2022/09/11 01:21:56;;;;;;;0.20;0.10;;;;;;;;;;5022172;28;20041;-68
2022/09/11 01:24:32;;;;;;;1.50;0.30;;;;;;;;;;4988867;28;20065;-68
2022/09/11 01:27:09;;;;;;;0.50;0.38;;;;;;;;;;5034427;28;20081;-69
2022/09/11 01:29:43;;;;;;;0.20;0.20;;;;;;;;;;5022529;28;20049;-69
2022/09/11 01:32:15;;;;;;;0.00;0.00;;;;;;;;;;5023616;28;20065;-68
2022/09/11 01:34:46;;;;;;;0.47;0.22;;;;;;;;;;5025193;28;21171;-68
2022/09/11 01:37:17;;;;;;;1.65;0.22;;;;;;;;;;5040235;28;20430;-68
2022/09/11 01:39:47;;;;;;;0.20;0.20;;;;;;;;;;5041176;28;20044;-68
2022/09/11 01:42:21;;;;;;;0.10;0.10;;;;;;;;;;5043606;28;20048;-68
2022/09/11 01:44:53;;;;;;;0.25;0.25;;;;;;;;;;5040275;28;20559;-68
2022/09/11 01:47:22;;;;;;;0.93;0.20;;;;;;;;;;5037753;28;20292;-68
2022/09/11 01:49:51;;;;;;;0.10;0.10;;;;;;;;;;5040913;28;20049;-68
2022/09/11 01:52:20;;;;;;;0.30;0.20;;;;;;;;;;5040722;28;20041;-68
2022/09/11 01:54:51;;;;;;;0.13;0.13;;;;;;;;;;5040839;28;20053;-68
2022/09/11 01:57:23;;;;;;;0.52;0.20;;;;;;;;;;5040615;28;20060;-68
2022/09/11 01:59:55;;;;;;;0.85;0.43;;;;;;;;;;5043627;28;20049;-67
2022/09/11 02:02:27;;;;;;;0.20;0.20;;;;;;;;;;5037802;28;20132;-68
2022/09/11 02:04:59;;;;;;;0.52;0.32;;;;;;;;;;5041711;28;20052;-68
2022/09/11 02:07:31;;;;;;;0.88;0.13;;;;;;;;;;5041596;28;20041;-68
2022/09/11 02:10:01;;;;;;;0.90;0.30;;;;;;;;;;5039946;28;20037;-68
2022/09/11 02:12:34;;;;;;;0.35;0.22;;;;;;;;;;5038351;28;20057;-68
2022/09/11 02:15:05;;;;;;;0.20;0.20;;;;;;;;;;5042407;28;20049;-68
2022/09/11 02:17:36;;;;;;;0.63;0.10;;;;;;;;;;5022114;28;20064;-68
2022/09/11 02:20:05;;;;;;;0.50;0.50;;;;;;;;;;5023381;28;20081;-68
2022/09/11 02:22:35;;;;;;;2.20;0.40;;;;;;;;;;5020936;28;20056;-68
2022/09/11 02:25:04;;;;;;;0.93;0.20;;;;;;;;;;5025662;28;20049;-69
2022/09/11 02:27:32;;;;;;;0.00;0.00;;;;;;;;;;5039360;28;20045;-71
2022/09/11 02:30:01;;;;;;;0.20;0.20;;;;;;;;;;5048689;28;20051;-69
2022/09/11 02:32:32;;;;;;;0.10;0.10;;;;;;;;;;5036756;28;20052;-67
2022/09/11 02:35:00;;;;;;;0.00;0.00;;;;;;;;;;5037575;28;20064;-67
2022/09/11 02:37:34;;;;;;;0.25;0.10;;;;;;;;;;5024561;28;20049;-68
2022/09/11 02:40:19;;;;;;;0.20;0.10;;;;;;;;;;5024422;28;20054;-68
2022/09/11 02:42:47;;;;;;;;;;;;;;;;;;5019244;28;20052;-68
2022/09/11 02:45:20;;;;;;;0.20;0.10;;;;;;;;;;5031230;28;19928;-68
2022/09/11 02:47:56;;;;;;;0.00;0.00;;;;;;;;;;5043813;28;20057;-68
2022/09/11 02:50:29;;;;;;;0.20;0.20;;;;;;;;;;5045606;28;20041;-68
2022/09/11 02:53:01;;;;;;;0.63;0.43;;;;;;;;;;5042749;28;20041;-66
2022/09/11 02:55:34;;;;;;;0.10;0.10;;;;;;;;;;5045267;28;20057;-68
2022/09/11 02:58:04;;;;;;;0.70;0.25;;;;;;;;;;5043250;28;20060;-68
2022/09/11 03:00:34;;;;;;;0.30;0.20;;;;;;;;;;5042867;28;20048;-68
2022/09/11 03:03:04;;;;;;;0.17;0.17;;;;;;;;;;5043415;28;20479;-68
2022/09/11 03:05:32;;;;;;;5.28;0.30;;;;;;;;;;5034718;28;21625;-68
2022/09/11 03:08:03;;;;;;;0.47;0.20;;;;;;;;;;5026604;28;20045;-68
2022/09/11 03:10:31;;;;;;;0.10;0.10;;;;;;;;;;5023769;28;20468;-68
2022/09/11 03:12:59;;;;;;;1.10;0.30;;;;;;;;;;5023930;28;20050;-70
2022/09/11 03:15:28;;;;;;;0.22;0.20;;;;;;;;;;5028514;28;20049;-68
2022/09/11 03:17:56;;;;;;;0.20;0.20;;;;;;;;;;5025267;28;20272;-68
2022/09/11 03:20:26;;;;;;;0.38;0.38;;;;;;;;;;5024363;28;20378;-68
2022/09/11 03:22:54;;;;;;;0.28;0.28;;;;;;;;;;5025562;28;20100;-67
2022/09/11 03:25:27;;;;;;;0.20;0.20;;;;;;;;;;5028325;28;20386;-68
2022/09/11 03:27:55;;;;;;;2.75;0.35;;;;;;;;;;5043878;28;20124;-68
2022/09/11 03:30:23;;;;;;;0.55;0.30;;;;;;;;;;5041253;28;20056;-67
2022/09/11 03:32:52;;;;;;;2.08;0.20;;;;;;;;;;5046855;28;20068;-68
2022/09/11 03:35:20;;;;;;;0.10;0.10;;;;;;;;;;5043323;28;20361;-68
2022/09/11 03:37:50;;;;;;;0.52;0.30;;;;;;;;;;5036950;28;20052;-68
2022/09/11 03:40:19;;;;;;;0.17;0.17;;;;;;;;;;5044684;28;20045;-68
2022/09/11 03:42:47;;;;;;;0.10;0.10;;;;;;;;;;5042937;28;20412;-68
2022/09/11 03:45:15;;;;;;;0.40;0.20;;;;;;;;;;5041933;28;20537;-68
2022/09/11 03:47:43;;;;;;;0.32;0.20;;;;;;;;;;5028356;28;20485;-68
2022/09/11 03:50:12;;;;;;;0.20;0.20;;;;;;;;;;5031469;28;20456;-68
2022/09/11 03:52:42;;;;;;;0.10;0.10;;;;;;;;;;5028818;28;20466;-68
2022/09/11 03:55:11;;;;;;;0.05;0.05;;;;;;;;;;5028801;28;20064;-68
2022/09/11 03:57:40;;;;;;;0.45;0.20;;;;;;;;;;5025721;28;20057;-68
2022/09/11 04:00:09;;;;;;;0.88;0.63;;;;;;;;;;5028119;28;20053;-68
2022/09/11 04:02:38;;;;;;;0.00;0.00;;;;;;;;;;5033116;28;20049;-68
2022/09/11 04:05:06;;;;;;;0.28;0.15;;;;;;;;;;5032544;28;20045;-68
2022/09/11 04:07:35;;;;;;;0.75;0.30;;;;;;;;;;5048826;28;20041;-68
2022/09/11 04:10:03;;;;;;;0.10;0.10;;;;;;;;;;5047229;28;20060;-68
2022/09/11 04:12:33;;;;;;;0.28;0.17;;;;;;;;;;5045317;28;20056;-68
2022/09/11 04:15:01;;;;;;;0.13;0.13;;;;;;;;;;5049634;28;20523;-68
2022/09/11 04:17:30;;;;;;;0.32;0.32;;;;;;;;;;5050252;28;20052;-68
2022/09/11 04:19:58;;;;;;;0.75;0.47;;;;;;;;;;5044038;28;20297;-68
2022/09/11 04:22:26;;;;;;;0.28;0.28;;;;;;;;;;5050421;28;20068;-68
2022/09/11 04:24:56;;;;;;;0.28;0.20;;;;;;;;;;5043905;28;20052;-68
2022/09/11 04:27:26;;;;;;;0.55;0.30;;;;;;;;;;5029334;28;20048;-68
2022/09/11 04:29:55;;;;;;;0.13;0.13;;;;;;;;;;5029270;28;20060;-68
2022/09/11 04:32:23;;;;;;;0.40;0.28;;;;;;;;;;5028987;28;20053;-68
2022/09/11 04:34:52;;;;;;;0.20;0.20;;;;;;;;;;5029591;28;20041;-68
2022/09/11 04:37:21;;;;;;;0.43;0.20;;;;;;;;;;5045441;28;20059;-68
2022/09/11 04:39:49;;;;;;;0.68;0.30;;;;;;;;;;5048511;28;20048;-68
2022/09/11 04:42:17;;;;;;;0.28;0.20;;;;;;;;;;5047036;28;20083;-68
2022/09/11 04:44:46;;;;;;;0.85;0.30;;;;;;;;;;5047568;28;20049;-68
2022/09/11 04:47:16;;;;;;;0.70;0.40;;;;;;;;;;5027940;28;20060;-68
2022/09/11 04:49:45;;;;;;;2.50;0.20;;;;;;;;;;5021861;28;20045;-68
2022/09/11 04:52:14;;;;;;;0.30;0.20;;;;;;;;;;5028444;28;20041;-68
2022/09/11 04:54:42;;;;;;;0.10;0.10;;;;;;;;;;5030880;28;20046;-69
2022/09/11 04:57:10;;;;;;;0.45;0.45;;;;;;;;;;5031582;28;20041;-68
2022/09/11 04:59:38;;;;;;;0.38;0.30;;;;;;;;;;5027154;28;20564;-68
2022/09/11 05:02:07;;;;;;;3.22;1.15;;;;;;;;;;5031135;28;20064;-68
2022/09/11 05:04:36;;;;;;;0.08;0.00;;;;;;;;;;5022910;28;20132;-68
2022/09/11 05:07:05;;;;;;;0.70;0.43;;;;;;;;;;5044599;28;20150;-68
2022/09/11 05:09:34;;;;;;;1.25;0.17;;;;;;;;;;5044144;28;20396;-68
2022/09/11 05:12:03;;;;;;;0.32;0.22;;;;;;;;;;5042546;28;20416;-69
2022/09/11 05:14:31;;;;;;;0.10;0.10;;;;;;;;;;5041986;28;20064;-69
2022/09/11 05:17:00;;;;;;;0.20;0.20;;;;;;;;;;5026113;28;20052;-69
2022/09/11 05:19:28;;;;;;;0.10;0.10;;;;;;;;;;5024032;28;20053;-68
2022/09/11 05:21:58;;;;;;;0.13;0.13;;;;;;;;;;5020403;28;20141;-68
2022/09/11 05:24:26;;;;;;;0.20;0.20;;;;;;;;;;5022886;28;20398;-68
2022/09/11 05:26:55;;;;;;;0.08;0.00;;;;;;;;;;5020493;28;20049;-69
2022/09/11 05:29:25;;;;;;;1.08;0.40;;;;;;;;;;5024526;28;20547;-69
2022/09/11 05:31:59;;;;;;;0.10;0.10;;;;;;;;;;5023182;28;20053;-69
2022/09/11 05:34:27;;;;;;;0.85;0.30;;;;;;;;;;5020746;28;20049;-69
2022/09/11 05:36:56;;;;;;;1.02;0.52;;;;;;;;;;5018270;28;20065;-69
2022/09/11 05:39:26;;;;;;;0.45;0.45;;;;;;;;;;5021755;28;20050;-68
2022/09/11 05:41:55;;;;;;;3.10;0.28;;;;;;;;;;5025696;28;20052;-69
2022/09/11 05:44:23;;;;;;;0.28;0.28;;;;;;;;;;5021530;28;20057;-69
2022/09/11 05:46:51;;;;;;;0.52;0.30;;;;;;;;;;5021725;28;20046;-69
2022/09/11 05:49:20;;;;;;;0.90;0.25;;;;;;;;;;5020493;28;20056;-68
2022/09/11 05:51:48;;;;;;;0.10;0.10;;;;;;;;;;5020549;28;20605;-68
2022/09/11 05:54:17;;;;;;;0.88;0.38;;;;;;;;;;5019966;28;20045;-68
2022/09/11 05:56:46;;;;;;;1.60;0.40;;;;;;;;;;5022582;28;20064;-68
2022/09/11 05:59:15;;;;;;;0.13;0.13;;;;;;;;;;5027373;28;20063;-69
2022/09/11 06:01:43;;;;;;;0.17;0.15;;;;;;;;;;5019715;28;20037;-69
2022/09/11 06:04:12;;;;;;;0.70;0.22;;;;;;;;;;5020514;28;20055;-69
2022/09/11 06:06:40;;;;;;;0.75;0.40;;;;;;;;;;5040149;28;20055;-69
2022/09/11 06:09:08;;;;;;;0.20;0.20;;;;;;;;;;5041324;28;20052;-69
2022/09/11 06:11:37;;;;;;;0.20;0.20;;;;;;;;;;5046524;28;20060;-69
2022/09/11 06:14:07;;;;;;;1.70;0.70;;;;;;;;;;5043463;28;20060;-69
2022/09/11 06:16:36;;;;;;;0.30;0.30;;;;;;;;;;5039963;28;20060;-68
2022/09/11 06:19:04;;;;;;;0.77;0.30;;;;;;;;;;5042283;28;20048;-69
2022/09/11 06:21:33;;;;;;;0.30;0.30;;;;;;;;;;5045627;28;20506;-70
2022/09/11 06:24:01;;;;;;;0.38;0.28;;;;;;;;;;5038537;28;20044;-69
2022/09/11 06:26:29;;;;;;;0.38;0.08;;;;;;;;;;5037153;28;20067;-68
2022/09/11 06:28:58;;;;;;;0.35;0.30;;;;;;;;;;5040772;28;20045;-70
2022/09/11 06:31:30;;;;;;;0.10;0.10;;;;;;;;;;5043548;28;20049;-70
2022/09/11 06:33:59;;;;;;;0.20;0.20;;;;;;;;;;5045169;28;20044;-69
2022/09/11 06:36:28;;;;;;;0.32;0.30;;;;;;;;;;5021907;28;20072;-69
2022/09/11 06:38:58;;;;;;;0.47;0.35;;;;;;;;;;5017183;28;20095;-69
2022/09/11 06:41:27;;;;;;;0.05;0.05;;;;;;;;;;5018630;28;20053;-68
2022/09/11 06:43:55;;;;;;;0.50;0.30;;;;;;;;;;5018026;28;20567;-68
2022/09/11 06:46:31;;;;;;;0.80;0.47;;;;;;;;;;5018455;28;20497;-69
2022/09/11 06:49:00;;;;;;;0.20;0.20;;;;;;;;;;5021940;28;20049;-68
2022/09/11 06:51:28;;;;;;;0.35;0.20;;;;;;;;;;5021906;28;20046;-68
2022/09/11 06:53:58;;;;;;;0.20;0.20;;;;;;;;;;5024692;28;20045;-68
2022/09/11 06:56:32;;;;;;;0.20;0.20;;;;;;;;;;5025326;28;20058;-70
2022/09/11 06:59:00;;;;;;;0.20;0.20;;;;;;;;;;5025431;28;20060;-70
2022/09/11 07:01:29;;;;;;;0.30;0.30;;;;;;;;;;5022691;28;20046;-70
2022/09/11 07:04:00;;;;;;;0.38;0.22;;;;;;;;;;5024130;28;20045;-70
2022/09/11 07:06:33;;;;;;;0.35;0.25;;;;;;;;;;5020353;28;20060;-71
2022/09/11 07:09:02;;;;;;;0.10;0.10;;;;;;;;;;5019356;28;20048;-70
2022/09/11 07:11:31;;;;;;;0.20;0.20;;;;;;;;;;5018825;28;20516;-70
2022/09/11 07:14:01;;;;;;;0.38;0.30;;;;;;;;;;5017920;28;20045;-71
2022/09/11 07:16:38;;;;;;;0.50;0.30;;;;;;;;;;5032919;28;20059;-72
2022/09/11 07:19:09;;;;;;;1.05;0.13;;;;;;;;;;5041280;28;20102;-72
2022/09/11 07:21:37;;;;;;;0.60;0.38;;;;;;;;;;5040441;28;20127;-71
2022/09/11 07:24:06;;;;;;;0.30;0.30;;;;;;;;;;5046392;28;20063;-72
2022/09/11 07:26:35;;;;;;;0.20;0.20;;;;;;;;;;5026300;28;20068;-71
2022/09/11 07:29:03;;;;;;;0.60;0.60;;;;;;;;;;5037282;28;20378;-71
2022/09/11 07:31:33;;;;;;;1.08;0.38;;;;;;;;;;5023598;28;20485;-70
2022/09/11 07:34:02;;;;;;;0.28;0.28;;;;;;;;;;5023883;28;20041;-71
2022/09/11 07:36:32;;;;;;;1.65;0.50;;;;;;;;;;5024201;28;20064;-72
2022/09/11 07:39:02;;;;;;;0.80;0.40;;;;;;;;;;5030181;28;20038;-72
2022/09/11 07:41:43;;;;;;;0.30;0.30;;;;;;;;;;5030063;28;20052;-72
2022/09/11 07:44:11;;;;;;;0.40;0.25;;;;;;;;;;5025917;28;20042;-72
2022/09/11 07:46:40;;;;;;;0.57;0.35;;;;;;;;;;5044065;28;20059;-72
2022/09/11 07:49:09;;;;;;;0.90;0.32;;;;;;;;;;5042645;28;20484;-71
2022/09/11 07:51:39;;;;;;;0.80;0.40;;;;;;;;;;5049409;28;20422;-71
2022/09/11 07:54:07;;;;;;;0.98;0.28;;;;;;;;;;5048491;28;20571;-70
2022/09/11 07:56:36;;;;;;;0.77;0.45;;;;;;;;;;5026256;28;20057;-71
2022/09/11 07:59:07;;;;;;;0.28;0.20;;;;;;;;;;5027016;28;20052;-71
2022/09/11 08:01:36;;;;;;;0.57;0.40;;;;;;;;;;5021997;28;20556;-69
2022/09/11 08:04:05;;;;;;;0.75;0.50;;;;;;;;;;5027466;28;20053;-70
2022/09/11 08:06:44;;;;;;;0.50;0.50;;;;;;;;;;5026071;28;20071;-69
2022/09/11 08:09:14;;;;;;;0.93;0.45;;;;;;;;;;5028500;28;20056;-71
2022/09/11 08:11:44;;;;;;;0.40;0.40;;;;;;;;;;5028787;28;20042;-70
2022/09/11 08:14:14;;;;;;;1.27;0.70;;;;;;;;;;5024517;28;20442;-70
2022/09/11 08:16:42;;;;;;;0.40;0.40;;;;;;;;;;5022425;28;20053;-70
2022/09/11 08:19:15;;;;;;;1.02;0.57;;;;;;;;;;5026313;28;20053;-70
2022/09/11 08:21:46;;;;;;;0.93;0.57;;;;;;;;;;5024878;28;20080;-70
2022/09/11 08:24:15;;;;;;;0.30;0.30;;;;;;;;;;5027351;28;20049;-72
2022/09/11 08:26:44;;;;;;;0.70;0.47;;;;;;;;;;5025421;28;20045;-70
2022/09/11 08:29:17;;;;;;;0.50;0.35;;;;;;;;;;5027253;28;20045;-71
2022/09/11 08:31:45;;;;;;;0.88;0.77;;;;;;;;;;5026629;28;20049;-71
2022/09/11 08:34:14;;;;;;;0.93;0.60;;;;;;;;;;5026780;28;20049;-72
2022/09/11 08:36:42;;;;;;;0.40;0.22;;;;;;;;;;5044274;28;20068;-71
2022/09/11 08:39:12;;;;;;;0.95;0.60;;;;;;;;;;5041426;28;20067;-70
2022/09/11 08:41:47;;;;;;;0.40;0.40;;;;;;;;;;5042648;28;20045;-71
2022/09/11 08:44:22;;;;;;;0.93;0.45;;;;;;;;;;5043481;28;20053;-69
2022/09/11 08:46:53;;;;;;;0.63;0.35;;;;;;;;;;5026630;28;20055;-71
2022/09/11 08:49:26;;;;;;;0.40;0.30;;;;;;;;;;5025603;28;20053;-72
2022/09/11 08:51:57;;;;;;;1.48;0.60;;;;;;;;;;5023511;28;20056;-71
2022/09/11 08:54:28;;;;;;;0.43;0.30;;;;;;;;;;5024995;28;20064;-71
2022/09/11 08:57:01;;;;;;;0.30;0.20;;;;;;;;;;5031462;28;20053;-71
2022/09/11 08:59:33;;;;;;;3.58;0.50;;;;;;;;;;5022974;28;20045;-70
2022/09/11 09:02:08;;;;;;;0.98;0.30;;;;;;;;;;5029322;28;20038;-70
2022/09/11 09:04:40;;;;;;;1.20;0.50;;;;;;;;;;5018626;28;20045;-71
2022/09/11 09:07:13;;;;;;;0.50;0.40;;;;;;;;;;5045630;28;20144;-71
2022/09/11 09:09:45;;;;;;;0.95;0.57;;;;;;;;;;5043406;28;20057;-72
2022/09/11 09:12:16;;;;;;;0.80;0.30;;;;;;;;;;5045408;28;20049;-70
2022/09/11 09:14:59;;;;;;;0.43;0.43;;;;;;;;;;5046860;28;20048;-71
2022/09/11 09:17:30;;;;;;;0.73;0.60;;;;;;;;;;5042156;28;20492;-72
2022/09/11 09:20:00;;;;;;;0.60;0.52;;;;;;;;;;5044787;28;20056;-72
2022/09/11 09:22:32;;;;;;;2.58;0.73;;;;;;;;;;5046131;28;20122;-73
2022/09/11 09:25:05;;;;;;;0.88;0.80;;;;;;;;;;5043298;28;20412;-72
2022/09/11 09:27:35;;;;;;;0.38;0.35;;;;;;;;;;5046665;28;20140;-72
2022/09/11 09:30:05;;;;;;;1.38;0.70;;;;;;;;;;5046886;28;20045;-72
2022/09/11 09:32:35;;;;;;;0.57;0.32;;;;;;;;;;5040196;28;20049;-73
2022/09/11 09:35:08;;;;;;;1.17;0.70;;;;;;;;;;5046598;28;20524;-71
2022/09/11 09:37:36;;;;;;;0.75;0.55;;;;;;;;;;5045345;28;20068;-72
2022/09/11 09:40:09;;;;;;;0.70;0.35;;;;;;;;;;5047522;28;20480;-74
2022/09/11 09:43:00;;;;;;;1.08;0.55;;;;;;;;;;5043804;28;20142;-75
2022/09/11 09:45:39;;;;;;;0.73;0.47;;;;;;;;;;5035669;28;20050;-75
2022/09/11 09:48:09;;;;;;;2.40;0.73;;;;;;;;;;5027870;28;20053;-73
2022/09/11 09:50:39;;;;;;;1.13;0.70;;;;;;;;;;5027259;28;20047;-72
2022/09/11 09:53:12;;;;;;;1.73;0.77;;;;;;;;;;5026176;28;20037;-73
2022/09/11 09:55:43;;;;;;;1.60;0.63;;;;;;;;;;5029701;28;20065;-75
2022/09/11 09:58:11;;;;;;;1.00;0.60;;;;;;;;;;5025947;28;20409;-72
2022/09/11 10:00:40;;;;;;;0.60;0.60;;;;;;;;;;5027939;28;20656;-75
2022/09/11 10:03:17;;;;;;;1.02;0.60;;;;;;;;;;5026393;28;20050;-72
2022/09/11 10:05:46;;;;;;;1.75;0.55;;;;;;;;;;5026210;28;20045;-74
2022/09/11 10:08:25;;;;;;;5.55;0.93;;;;;;;;;;5026569;28;20068;-72
2022/09/11 10:10:57;;;;;;;1.30;0.57;;;;;;;;;;5024619;28;20045;-71
2022/09/11 10:13:27;;;;;;;1.58;1.13;;;;;;;;;;5029120;28;20516;-71
2022/09/11 10:15:58;;;;;;;1.85;1.00;;;;;;;;;;5026605;28;20052;-72
2022/09/11 10:18:37;;;;;;;0.60;0.50;;;;;;;;;;5024555;28;20041;-72
2022/09/11 10:21:28;;;;;;;1.30;0.80;;;;;;;;;;5030026;28;20076;-71
2022/09/11 10:23:57;;;;;;;0.80;0.60;;;;;;;;;;5024469;28;20155;-72
2022/09/11 10:26:29;;;;;;;1.13;0.60;;;;;;;;;;5025780;28;20080;-71
2022/09/11 10:29:00;;;;;;;2.05;0.70;;;;;;;;;;5020503;28;20049;-76
2022/09/11 10:31:28;;;;;;;3.08;1.08;;;;;;;;;;5032024;28;20052;-72
2022/09/11 10:33:58;;;;;;;2.03;1.33;;;;;;;;;;5031864;28;20088;-74
2022/09/11 10:36:28;;;;;;;1.10;0.55;;;;;;;;;;5026601;28;20498;-73
2022/09/11 10:38:57;;;;;;;1.27;0.80;;;;;;;;;;5028073;28;20048;-72
2022/09/11 10:41:33;;;;;;;0.80;0.70;;;;;;;;;;5027350;28;20052;-71
2022/09/11 10:44:02;;;;;;;1.73;0.70;;;;;;;;;;5028112;28;20052;-70
2022/09/11 10:46:33;;;;;;;0.95;0.80;;;;;;;;;;5026767;28;20045;-72
2022/09/11 10:49:09;;;;;;;0.80;0.57;;;;;;;;;;5024842;28;20050;-74
2022/09/11 10:51:39;;;;;;;1.42;0.82;;;;;;;;;;5025943;28;20041;-73
2022/09/11 10:54:22;;;;;;;1.58;1.00;;;;;;;;;;5029004;28;20075;-73
2022/09/11 10:57:04;;;;;;;1.42;0.82;;;;;;;;;;5043313;28;20041;-71
2022/09/11 10:59:38;;;;;;;1.65;0.85;;;;;;;;;;5043853;28;20136;-73
2022/09/11 11:02:16;;;;;;;1.30;0.80;;;;;;;;;;5043379;28;20052;-72
2022/09/11 11:04:45;;;;;;;2.58;1.15;;;;;;;;;;5043797;28;20041;-72
2022/09/11 11:07:17;;;;;;;0.50;0.50;;;;;;;;;;5046989;28;20059;-73
2022/09/11 11:09:51;;;;;;;3.75;0.68;;;;;;;;;;5048884;28;20348;-73
2022/09/11 11:12:31;;;;;;;0.85;0.60;;;;;;;;;;5052754;28;20408;-72
2022/09/11 11:15:33;;;;;;;1.17;0.60;;;;;;;;;;5041467;28;20098;-72
2022/09/11 11:18:20;;;;;;;0.77;0.60;;;;;;;;;;4968505;28;20051;-73
2022/09/11 11:20:54;;;;;;;1.30;0.85;;;;;;;;;;4963720;28;21173;-73
2022/09/11 11:23:40;;;;;;;1.55;0.98;;;;;;;;;;5008147;28;20048;-73
2022/09/11 11:26:26;;;;;;;1.17;0.77;;;;;;;;;;5027808;28;20068;-73
2022/09/11 11:29:08;;;;;;;0.40;0.40;;;;;;;;;;5025807;28;20489;-74
2022/09/11 11:31:38;;;;;;;2.00;0.70;;;;;;;;;;5022218;28;20047;-73
2022/09/11 11:34:17;;;;;;;1.45;0.70;;;;;;;;;;5029292;28;20049;-71
2022/09/11 11:36:47;;;;;;;1.02;0.85;;;;;;;;;;5025538;28;20486;-76
2022/09/11 11:39:19;;;;;;;1.17;0.70;;;;;;;;;;5023670;28;20053;-75
2022/09/11 11:41:50;;;;;;;0.40;0.30;;;;;;;;;;5026384;28;20512;-76
2022/09/11 11:44:28;;;;;;;0.60;0.50;;;;;;;;;;5027777;28;20045;-74
2022/09/11 11:46:57;;;;;;;0.85;0.40;;;;;;;;;;5018989;28;20052;-73
2022/09/11 11:49:30;;;;;;;0.22;0.22;;;;;;;;;;5024115;28;20049;-73
2022/09/11 11:52:03;;;;;;;0.43;0.30;;;;;;;;;;5025052;28;20505;-83
2022/09/11 11:54:35;;;;;;;0.20;0.20;;;;;;;;;;5022096;28;20407;-72
2022/09/11 11:57:08;;;;;;;0.17;0.17;;;;;;;;;;5026677;28;20052;-75
2022/09/11 11:59:42;;;;;;;0.30;0.30;;;;;;;;;;5024386;28;20494;-74
2022/09/11 12:02:17;;;;;;;0.28;0.28;;;;;;;;;;5021091;28;20057;-71
2022/09/11 12:04:45;;;;;;;;;;;;;;;;;;5022740;28;20049;-79
2022/09/11 12:07:16;;;;;;;0.47;0.20;;;;;;;;;;5025877;28;19929;-75
2022/09/11 12:09:49;;;;;;;0.52;0.47;;;;;;;;;;5026399;28;20045;-74
2022/09/11 12:12:22;;;;;;;0.43;0.40;;;;;;;;;;5023394;28;20060;-75
2022/09/11 12:15:09;;;;;;;0.40;0.28;;;;;;;;;;5023541;28;20044;-77
2022/09/11 12:17:39;;;;;;;1.25;0.82;;;;;;;;;;5041457;28;20051;-73
2022/09/11 12:20:31;;;;;;;0.95;0.47;;;;;;;;;;5042394;28;20473;-74
2022/09/11 12:22:59;;;;;;;0.30;0.30;;;;;;;;;;5041393;28;20415;-72
2022/09/11 12:25:47;;;;;;;0.43;0.35;;;;;;;;;;5045021;28;20463;-73
2022/09/11 12:28:22;;;;;;;0.75;0.35;;;;;;;;;;5045501;28;20160;-73
2022/09/11 12:31:00;;;;;;;0.60;0.45;;;;;;;;;;5045381;28;20060;-74
2022/09/11 12:33:49;;;;;;;0.40;0.32;;;;;;;;;;5040539;28;20107;-75
2022/09/11 12:36:23;;;;;;;3.20;0.55;;;;;;;;;;5040521;28;20060;-72
2022/09/11 12:39:37;;;;;;;0.52;0.45;;;;;;;;;;5032676;28;20056;-71
2022/09/11 12:42:21;;;;;;;0.68;0.45;;;;;;;;;;5042867;28;20496;-71
2022/09/11 12:44:59;;;;;;;0.80;0.60;;;;;;;;;;5040710;28;20045;-74
2022/09/11 12:47:34;;;;;;;0.40;0.40;;;;;;;;;;5023208;28;20064;-76
2022/09/11 12:50:09;;;;;;;0.40;0.40;;;;;;;;;;5018925;28;20390;-78
2022/09/11 12:52:41;;;;;;;0.82;0.50;;;;;;;;;;5023106;28;20053;-71
2022/09/11 12:55:23;;;;;;;0.43;0.40;;;;;;;;;;5028932;28;20049;-72
2022/09/11 12:57:51;;;;;;;0.68;0.40;;;;;;;;;;5048788;28;20057;-70
2022/09/11 13:00:24;;;;;;;0.90;0.32;;;;;;;;;;5046964;28;20049;-71
2022/09/11 13:02:55;;;;;;;0.85;0.45;;;;;;;;;;5049058;28;20476;-75
2022/09/11 13:05:25;;;;;;;0.45;0.40;;;;;;;;;;5036770;28;20045;-74
2022/09/11 13:07:55;;;;;;;1.13;0.57;;;;;;;;;;5029036;28;20037;-71
2022/09/11 13:10:29;;;;;;;0.45;0.35;;;;;;;;;;5028063;28;20060;-71
2022/09/11 13:12:58;;;;;;;0.30;0.30;;;;;;;;;;5028663;28;20043;-71
2022/09/11 13:15:50;;;;;;;0.47;0.38;;;;;;;;;;5022184;28;20405;-71
2022/09/11 13:18:26;;;;;;;0.90;0.47;;;;;;;;;;5025989;28;20122;-71
2022/09/11 13:21:03;;;;;;;4.60;0.50;;;;;;;;;;5028950;28;20033;-73
2022/09/11 13:23:31;;;;;;;0.20;0.20;;;;;;;;;;5017051;28;20508;-75
2022/09/11 13:26:00;;;;;;;0.20;0.20;;;;;;;;;;5027000;28;20515;-70
2022/09/11 13:28:30;;;;;;;0.38;0.30;;;;;;;;;;5017369;28;20484;-75
2022/09/11 13:31:00;;;;;;;0.88;0.45;;;;;;;;;;5026685;28;20072;-72
2022/09/11 13:33:31;;;;;;;0.40;0.40;;;;;;;;;;5019795;28;20049;-70
2022/09/11 13:36:01;;;;;;;0.45;0.40;;;;;;;;;;5026414;28;20046;-68
2022/09/11 13:38:31;;;;;;;0.88;0.52;;;;;;;;;;5025967;28;20053;-71
2022/09/11 13:41:02;;;;;;;0.50;0.40;;;;;;;;;;5028032;28;20049;-69
2022/09/11 13:43:34;;;;;;;1.25;0.30;;;;;;;;;;5023965;28;20049;-68
2022/09/11 13:46:22;;;;;;;0.70;0.40;;;;;;;;;;5026122;28;20052;-68
2022/09/11 13:48:53;;;;;;;0.98;0.47;;;;;;;;;;5023526;28;20049;-68
2022/09/11 13:54:54;;;;;;;1.27;0.50;;;;;;;;;;5022581;28;20115;-69
2022/09/11 13:57:23;;;;;;;1.23;0.57;;;;;;;;;;5025278;28;20153;-69
2022/09/11 13:59:55;;;;;;;0.70;0.40;;;;;;;;;;5024319;28;20041;-69
2022/09/11 14:02:40;;;;;;;0.47;0.40;;;;;;;;;;5028974;28;20555;-69
2022/09/11 14:05:12;;;;;;;1.90;0.73;;;;;;;;;;5032812;28;20055;-69
2022/09/11 14:07:49;;;;;;;1.02;0.63;;;;;;;;;;5046532;28;20044;-73
2022/09/11 14:13:52;;;;;;;1.15;0.60;;;;;;;;;;5044527;28;20079;-69
2022/09/11 14:16:22;;;;;;;0.50;0.30;;;;;;;;;;5034492;28;20061;-70
2022/09/11 14:18:52;;;;;;;0.70;0.40;;;;;;;;;;5027929;28;20049;-70
2022/09/11 14:21:23;;;;;;;0.28;0.28;;;;;;;;;;5025591;28;20060;-69
2022/09/11 14:23:52;;;;;;;0.90;0.70;;;;;;;;;;5025339;28;20080;-70
2022/09/11 14:26:23;;;;;;;0.40;0.30;;;;;;;;;;5041469;28;20045;-73
2022/09/11 14:29:02;;;;;;;0.32;0.25;;;;;;;;;;5044395;28;20446;-72
2022/09/11 14:31:35;;;;;;;0.40;0.25;;;;;;;;;;5045583;28;20078;-72
2022/09/11 14:34:11;;;;;;;1.55;0.40;;;;;;;;;;5048951;28;20049;-72
2022/09/11 14:36:42;;;;;;;0.73;0.47;;;;;;;;;;5028342;28;20501;-72
2022/09/11 14:39:13;;;;;;;0.43;0.32;;;;;;;;;;5025586;28;20045;-72
2022/09/11 14:41:42;;;;;;;0.35;0.22;;;;;;;;;;5029937;28;20041;-72
2022/09/11 14:44:12;;;;;;;0.55;0.30;;;;;;;;;;5028705;28;20397;-72
2022/09/11 14:46:41;;;;;;;0.60;0.40;;;;;;;;;;5028521;28;20077;-71
2022/09/11 14:49:11;;;;;;;0.38;0.30;;;;;;;;;;5025390;28;20421;-71
2022/09/11 14:51:42;;;;;;;0.50;0.40;;;;;;;;;;5026825;28;20532;-71
2022/09/11 14:54:14;;;;;;;3.03;0.50;;;;;;;;;;5024141;28;20058;-71
2022/09/11 14:56:43;;;;;;;0.88;0.38;;;;;;;;;;5044958;28;20512;-71
2022/09/11 14:59:12;;;;;;;0.90;0.60;;;;;;;;;;5045305;28;20049;-71
2022/09/11 15:01:41;;;;;;;0.35;0.35;;;;;;;;;;5045967;28;20056;-71
2022/09/11 15:04:13;;;;;;;0.82;0.60;;;;;;;;;;5044548;28;20041;-72
2022/09/11 15:06:42;;;;;;;5.65;0.73;;;;;;;;;;5046099;28;20071;-72
2022/09/11 15:09:10;;;;;;;0.82;0.45;;;;;;;;;;5045828;28;20057;-72
2022/09/11 15:11:40;;;;;;;0.93;0.63;;;;;;;;;;5047058;28;20057;-72
2022/09/11 15:14:10;;;;;;;0.68;0.50;;;;;;;;;;5044142;28;20412;-72
2022/09/11 15:16:50;;;;;;;0.45;0.32;;;;;;;;;;5023094;28;20041;-72